Historyczne dane pomiarowe

Dodano dane terminowe – wersja testowa.

Dane z okresu 1951-2019

Wersja bazy: 1.34 [2019-03-16, lista zmian], aktualizacja planowana na 2019-04-15

Dane meteo z obszaru Polski uzyskane na podstawie danych udostępnionych przez Instytut Meteorologii i Gospodarki Wodnej – Państwowy Instytut Badawczy.

 

Wybierz Datę:    

       

TemperaturaWilgotnośćWiatrCiśnienieOpadyŚniegCzas trwania zjawisk
 Stacja t tx tn tng RH VA  wxwx mslp ppp RRR   cm mm wxwxwxwxwxwxwx
2011-06-13 11.6 17.3 0.4 -1.1-- 0.7----- 0.0------------
2011-06-14 12.9 17.6 6.3 4.7-- 4.0----- 0.3------------
2011-06-15 13.6 18.9 5.6 3.9-- 4.0----- 4.0------------
2011-06-16 16.0 20.9 8.9 7.7-- 1.0----- 12.1------------
2011-06-17 14.2 18.8 10.8 10.7-- 3.3----- 10.5------------
2011-06-18 11.8 15.8 7.1 5.8-- 7.3----- 0.3------------
2011-06-19 8.9 12.8 7.3 7.2-- 8.0----- 15.7------------
2011-06-20 9.9 13.4 6.6 6.3-- 8.0----- 1.5------------
2011-06-21 12.2 15.7 8.1 7.1-- 8.0----- 3.1------------
2011-06-22 17.0 22.6 12.2 10.5-- 8.0----- 12.5------------
2011-06-23 13.2 19.1 9.0 8.1-- 6.3----- 0.9------------
2011-06-24 9.3 14.3 5.2 3.9-- 5.3----- 4.5------------
2011-06-25 8.9 12.0 6.1 5.1-- 4.0----- 2.3------------
2011-06-26 9.8 12.7 5.4 4.5-- 7.3----- 1.3------------
2011-06-27 13.8 18.1 8.0 6.9-- 2.7----- 0.0------------
2011-06-28 13.5 18.8 3.6 2.8-- 0.0----- 0.0------------
2011-06-29 16.0 22.5 3.1 1.8-- 0.0----- 0.0------------
2011-06-30 13.8 21.2 8.4 6.7-- 6.0----- 0.8------------
2011-07-01 8.7 12.1 3.7 7.0-- 8.0----- 0.3------------
2011-07-02 7.5 12.3 3.6 6.4-- 8.0----- 17.0------------
2011-07-03 8.8 12.0 3.6 6.5-- 8.0----- 29.0------------
2011-07-04 10.8 12.2 7.8 10.9-- 8.0----- 15.3------------
2011-07-05 13.1 16.0 8.8 11.5-- 5.0----- 0.1------------
2011-07-06 13.0 22.3 1.0 1.8-- 0.7----- 0.0------------
2011-07-07 16.3 22.3 6.9 16.4-- 0.0----- 0.9------------
2011-07-08 15.5 19.8 8.0 8.8-- 5.3----- 0.7------------
2011-07-09 16.0 23.1 4.5 4.0-- 0.0----- 16.9------------
2011-07-10 16.3 21.0 8.6 9.0-- 0.0----- 18.5------------
2011-07-11 14.4 20.6 9.2 10.3-- 8.0----- 2.7------------
2011-07-12 13.0 19.6 0.5 1.4-- 0.3----- 0.0------------
148.9 ms

 

Źródłem pochodzenia danych jest Instytut Meteorologii i Gospodarki Wodnej – Państwowy Instytut Badawczy. Dane Instytutu Meteorologii i Gospodarki Wodnej – Państwowego Instytutu Badawczego zostały przetworzone.

Dane źródłowe można odnaleźć na stronie https://dane.imgw.pl